x

8452944 - Conimicut Light, Ri (cptr1) Weather Station

5:54 - Fri 1st Aug 2014 All times are EDT. -4 hours from GMT.

  • Wind
    20mph, 24mph gusts
  • Sea Temp 75°f
  • Ar Temp 74°f
  • Sea Pressure 1022.9mb
  • 8452944 - Conimicut Light, Ri
  • 8452944 - Conimicut Light, Ri

More Historic Weather Station data

Upgrade to MSW Pro to gain access to the past 30 days of data for over 8000 Wavebouys and Weather Stations around the globe.

Join Pro

Comparision Forecast

View Surf forecast
   
Sex 08/01 5:54 20 24 mph 1022.9mb 75f 74f
5:48 22 25 mph 1022.8mb 75f 74f
5:42 22 24 mph 1022.8mb 75f 74f
5:36 21 23 mph 1022.8mb 75f 74f
5:30 20 24 mph 1022.9mb 75f 74f
5:24 21 23 mph 1022.9mb 75f 74f
5:18 22 24 mph 1022.9mb 75f 74f
5:12 22 24 mph 1022.9mb 75f 74f
5:06 21 23 mph 1022.8mb 75f 74f
5:00 20 23 mph 1022.8mb 75f 74f
4:54 20 22 mph 1022.8mb 75f 74f
4:48 20 23 mph 1022.9mb 75f 74f
4:42 21 23 mph 1022.9mb 75f 74f
4:36 22 23 mph 1022.8mb 75f 74f
4:30 22 23 mph 1023mb 75f 74f
4:24 22 25 mph 1023.1mb 75f 74f
4:18 21 25 mph 1023mb 75f 74f
4:12 22 23 mph 1022.8mb 75f 74f
4:06 21 22 mph 1022.9mb 75f 74f
4:00 21 23 mph 1022.9mb 75f 74f
3:54 22 25 mph 1022.9mb 75f 74f
3:48 23 24 mph 1022.8mb 75f 74f
3:42 22 25 mph 1022.9mb 75f 74f
3:36 22 25 mph 1022.9mb 75f 74f
3:30 23 25 mph 1022.9mb 75f 74f
3:24 22 24 mph 1022.8mb 75f 74f
3:18 23 25 mph 1022.7mb 75f 74f
3:12 22 24 mph 1022.7mb 75f 74f
3:06 22 24 mph 1022.7mb 75f 74f
3:00 18 22 mph 1022.7mb 75f 74f
2:54 18 21 mph 1022.6mb 75f 74f
2:48 18 22 mph 1022.5mb 75f 74f
2:42 21 22 mph 1022.6mb 75f 74f
2:36 20 22 mph 1022.7mb 75f 74f
2:30 21 23 mph 1022.8mb 75f 73f
2:24 21 24 mph 1023mb 75f 73f
2:18 20 23 mph 1023.1mb 75f 73f
2:12 22 23 mph 1023mb 75f 74f
2:06 22 24 mph 1023.1mb 75f 74f
2:00 21 24 mph 1023mb 75f 74f
1:54 21 23 mph 1023.1mb 75f 73f
1:48 21 23 mph 1023.2mb 75f 73f
1:42 21 22 mph 1023.2mb 76f 73f
1:36 20 22 mph 1023.3mb 76f 73f
1:30 17 20 mph 1023.2mb 76f 74f
1:24 16 20 mph 1023.1mb 76f 74f
1:18 16 18 mph 1023.2mb 76f 74f
1:12 15 18 mph 1023.3mb 75f 74f
1:06 16 18 mph 1023.2mb 75f 74f
1:00 17 18 mph 1023.2mb 75f 74f
12:54 15 17 mph 1023.2mb 75f 74f
12:48 16 18 mph 1023.3mb 75f 74f
12:42 17 18 mph 1023.4mb 75f 74f
12:36 14 15 mph 1023.4mb 75f 74f
12:30 13 15 mph 1023.4mb 75f 74f
12:24 9
mph
1023.5mb 75f 75f
12:18 9 10 mph 1023.5mb 75f 75f
12:12 8 9 mph 1023.5mb 75f 75f
12:06 8 9 mph 1023.5mb 75f 74f
12:00 8 9 mph 1023.4mb 75f 74f
11:54 6 8 mph 1023.3mb 75f 74f
11:48 5 6 mph 1023.4mb 75f 74f
11:42 5 7 mph 1023.4mb 75f 74f
11:36 6 7 mph 1023.4mb 75f 74f
11:30 6 8 mph 1023.4mb 75f 74f
11:24 8 9 mph 1023.4mb 75f 74f
11:18 9
mph
1023.5mb 75f 73f
11:12 9
mph
1023.6mb 75f 73f
11:06 7 10 mph 1023.6mb 75f 73f
11:00 9 10 mph 1023.5mb 75f 73f
10:54 10 11 mph 1023.4mb 75f 73f
10:48 10 11 mph 1023.4mb 74f 73f
10:42 10
mph
1023.4mb 74f 73f
10:36 8 9 mph 1023.3mb 74f 73f
10:30 7 9 mph 1023.3mb 74f 73f
10:24 8 9 mph 1023.3mb 74f 73f
10:18 8
mph
1023.3mb 74f 73f
10:12 7 8 mph 1023.2mb 74f 72f
10:06 7 8 mph 1023.2mb 74f 72f
10:00 7 8 mph 1023.2mb 74f 72f
9:54 7 8 mph 1023.2mb 74f 72f
9:48 7 8 mph 1023.2mb 74f 72f
9:42 7 8 mph 1023.1mb 74f 72f
9:36 6 7 mph 1023.1mb 74f 72f
9:30 5 6 mph 1023mb 74f 72f
9:24 5
mph
1023mb 74f 72f
9:18 3 6 mph 1023mb 74f 72f
9:12 5 6 mph 1022.9mb 74f 72f
9:06 3
mph
1023mb 74f 72f
9:00  -  1 mph 1023mb 74f 73f
8:54 1 2 mph 1022.9mb 74f 72f
8:48 2
mph
1022.9mb 74f 72f
8:42  -  1 mph 1022.9mb 74f 72f
8:36 1 2 mph 1022.9mb 74f 72f
8:30 2 3 mph 1022.9mb 74f 71f
8:24  -  1 mph 1022.9mb 74f 71f
8:18 1 3 mph 1022.9mb 74f 71f
8:12 2
mph
1022.8mb 74f 71f
8:06 1 2 mph 1022.8mb 74f 71f
8:00 2
mph
1022.7mb 74f 71f
7:54 2 5 mph 1022.8mb 74f 71f
7:48 2 6 mph 1022.7mb 74f 71f
7:42 5 6 mph 1022.6mb 74f 70f
7:36 5 6 mph 1022.6mb 74f 70f
7:30 5 6 mph 1022.6mb 74f 70f
7:24 6 7 mph 1022.5mb 74f 70f
7:18 5 6 mph 1022.4mb 74f 70f
7:12 5 6 mph 1022.4mb 74f 70f
7:06 6 7 mph 1022.4mb 74f 70f
7:00 6 8 mph 1022.4mb 74f 70f
6:54 7 9 mph 1022.4mb 74f 70f
6:48 7 9 mph 1022.3mb 74f 70f
6:42 8 10 mph 1022.3mb 74f 70f
6:36 9 10 mph 1022.3mb 75f 70f
6:30 7 8 mph 1022.2mb 75f 70f
6:24 6 7 mph 1022.2mb 75f 69f
6:18 6
mph
1022.1mb 75f 69f
6:12 5 6 mph 1022.1mb 75f 69f
6:06 5 7 mph 1022.1mb 75f 69f
6:00 6
mph
1022.2mb 75f 69f
5:54 5 7 mph 1022.2mb 75f 69f
5:48 6
mph
1022.2mb 75f 69f
5:42 7 8 mph 1022.2mb 75f 69f
5:36 7 8 mph 1022.1mb 75f 69f
5:30 6 7 mph 1022mb 75f 69f
5:24 6 7 mph 1022mb 75f 69f
5:18 7
mph
1021.9mb 75f 69f
5:12 6
mph
1021.9mb 75f 69f
5:06 3 6 mph 1021.9mb 75f 69f
5:00 3 5 mph 1021.9mb 75f 69f
4:54 5 7 mph 1022mb 75f 69f
4:48 6 8 mph 1022mb 75f 69f
4:42 6 8 mph 1022mb 75f 69f
4:36 6 7 mph 1022mb 75f 69f
4:30 6 8 mph 1022mb 75f 69f
4:24 6 7 mph 1021.9mb 75f 69f
4:18 6 10 mph 1021.9mb 75f 69f
4:12 8 10 mph 1021.9mb 75f 69f
4:06 9 11 mph 1022mb 75f 69f
4:00 9 11 mph 1022mb 75f 69f
3:54 10 11 mph 1022mb 75f 69f
3:48 7 9 mph 1022mb 75f 69f
3:42 9 10 mph 1021.9mb 75f 69f
3:36 7 10 mph 1021.9mb 75f 69f
3:30 7 11 mph 1021.9mb 75f 69f
3:24 9 10 mph 1021.9mb 75f 69f
3:18 8 10 mph 1021.9mb 75f 69f
3:12 9 14 mph 1021.9mb 75f 69f
3:06 9 13 mph 1021.9mb 75f 69f
3:00 9 10 mph 1021.9mb 75f 69f
2:54 9 11 mph 1021.9mb 75f 69f
2:48 10 11 mph 1021.9mb 75f 69f
2:42 10 13 mph 1021.8mb 75f 69f
2:36 10 14 mph 1021.9mb 75f 69f
2:30 11 14 mph 1021.9mb 75f 69f
2:24 10 13 mph 1021.9mb 75f 69f
2:18 9 11 mph 1021.9mb 75f 70f
2:12 8 11 mph 1021.8mb 75f 69f
2:06 8 9 mph 1021.8mb 75f 69f
2:00 8 10 mph 1021.7mb 75f 70f
1:54 7 9 mph 1021.7mb 75f 69f
1:48 6 10 mph 1021.6mb 75f 69f
1:42 7 10 mph 1021.6mb 75f 70f
1:36 9 10 mph 1021.6mb 75f 70f
1:30 7 9 mph 1021.6mb 75f 70f
1:24 7 10 mph 1021.6mb 75f 70f
1:18 7 10 mph 1021.6mb 75f 70f
1:12 10 11 mph 1021.7mb 75f 70f
1:06 10 15 mph 1021.7mb 75f 70f
1:00 11 14 mph 1021.7mb 75f 70f
12:54 10 13 mph 1021.7mb 75f 70f
12:48 9 11 mph 1021.8mb 75f 69f
12:42 10 13 mph 1021.8mb 75f 69f
12:36 10 13 mph 1021.7mb 75f 70f
12:30 10 11 mph 1021.6mb 75f 70f
12:24 10 11 mph 1021.6mb 75f 70f
12:18 9 11 mph 1021.7mb 75f 70f
12:12 9 10 mph 1021.7mb 75f 70f
12:06 9 13 mph 1021.7mb 75f 70f
12:00 9 11 mph 1021.7mb 75f 70f
Qui 07/31 11:54 8 11 mph 1021.8mb 75f 70f
11:48 7 10 mph 1021.8mb 75f 70f
11:42 8 10 mph 1021.8mb 75f 70f
11:36 8 11 mph 1021.8mb 75f 70f
11:30 9 13 mph 1021.7mb 75f 70f
11:24 10 13 mph 1021.7mb 75f 71f
11:18 10 14 mph 1021.7mb 75f 70f
11:12 9 13 mph 1021.7mb 75f 70f
11:06 8 11 mph 1021.8mb 75f 70f
11:00 8 11 mph 1021.8mb 75f 70f
10:54 10 14 mph 1021.8mb 75f 71f
10:48 13 14 mph 1021.7mb 75f 71f
10:42 10 11 mph 1021.7mb 75f 71f
10:36 10 14 mph 1021.6mb 75f 71f
10:30 11 15 mph 1021.6mb 75f 71f
10:24 11 15 mph 1021.6mb 75f 71f
10:18 14 16 mph 1021.5mb 75f 71f
10:12 14 17 mph 1021.6mb 75f 71f
10:06 15 17 mph 1021.6mb 75f 71f
10:00 14 16 mph 1021.5mb 75f 71f
9:54 15 16 mph 1021.5mb 75f 71f
9:48 14 16 mph 1021.5mb 75f 71f
9:42 14 17 mph 1021.5mb 75f 71f
9:36 16 18 mph 1021.5mb 75f 71f
9:30 14 17 mph 1021.4mb 76f 71f
9:24 14 17 mph 1021.4mb 76f 72f
9:18 16 18 mph 1021.4mb 76f 72f
9:12 15 20 mph 1021.3mb 76f 72f
9:06 17 18 mph 1021.2mb 76f 72f
9:00 17 20 mph 1021.2mb 76f 72f
8:54 17 18 mph 1021mb 76f 72f
8:48 14 17 mph 1020.9mb 76f 72f
8:42 18 22 mph 1020.9mb 76f 72f
8:36 17 21 mph 1020.8mb 76f 72f
8:30 20 21 mph 1020.7mb 76f 72f
8:24 18 21 mph 1020.7mb 76f 72f
8:18 16 22 mph 1020.5mb 76f 73f
8:12 17 20 mph 1020.4mb 76f 73f
8:06 20 23 mph 1020.4mb 76f 73f
8:00 18 22 mph 1020.3mb 76f 73f
7:54 17 22 mph 1020.3mb 76f 73f
7:48 22 24 mph 1020.3mb 76f 73f
7:42 21 24 mph 1020.3mb 76f 73f
7:36 21 24 mph 1020.1mb 76f 73f
7:00 20 23 mph 1019.8mb 75f 74f
6:54 20 23 mph 1019.7mb 75f 74f
6:48 21 24 mph 1019.8mb 75f 74f
6:42 18 22 mph 1019.7mb 75f 74f
6:36 20 22 mph 1019.6mb 75f 74f
6:30 20 22 mph 1019.6mb 75f 74f
6:24 18 22 mph 1019.6mb 75f 74f
6:18 18 23 mph 1019.6mb 75f 74f
6:12 21 23 mph 1019.5mb 75f 74f
6:06 22 24 mph 1019.4mb 75f 74f
6:00 22 24 mph 1019.3mb 75f 74f
5:54 23 24 mph 1019.2mb 75f 74f
5:48 22 24 mph 1019.2mb 75f 74f
5:42 22 25 mph 1019.3mb 75f 74f
5:36 22 24 mph 1019.2mb 75f 74f
5:30 22 24 mph 1019.2mb 75f 75f
5:24 22 24 mph 1019.1mb 75f 74f
5:18 22 24 mph 1019.2mb 75f 75f
5:12 21 24 mph 1019.2mb 75f 74f
5:06 22 24 mph 1019.1mb 75f 74f
5:00 22 23 mph 1019.2mb 75f 74f
4:54 21 24 mph 1019.2mb 75f 74f
4:48 21 25 mph 1019.2mb 75f 74f
4:42 22 25 mph 1019.1mb 75f 74f
4:36 22 25 mph 1019.1mb 74f 74f
4:30 22 25 mph 1019.1mb 74f 74f
4:24 24 26 mph 1019mb 74f 74f
4:18 22 26 mph 1019.1mb 74f 74f
4:12 24 26 mph 1019.1mb 74f 75f
4:06 24 26 mph 1019.1mb 74f 74f
4:00 22 26 mph 1019.1mb 74f 74f
3:54 24 26 mph 1019.1mb 74f 74f
3:48 23 26 mph 1019.1mb 74f 74f
3:42 23 26 mph 1019.1mb 74f 74f
3:36 22 24 mph 1019.1mb 74f 74f
3:30 21 25 mph 1019.1mb 74f 74f
3:24 22 24 mph 1019mb 74f 74f
3:18 22 24 mph 1019mb 74f 74f
3:12 23 25 mph 1019.1mb 74f 74f
3:06 22 24 mph 1019.1mb 74f 74f
3:00 22 24 mph 1019.1mb 74f 74f
2:54 23 25 mph 1019mb 74f 74f
2:48 21 24 mph 1019mb 75f 74f
2:42 24 26 mph 1018.8mb 75f 74f
2:36 23 25 mph 1018.8mb 75f 74f
2:30 22 25 mph 1018.8mb 75f 74f
2:24 22 25 mph 1018.8mb 75f 74f
2:18 23 25 mph 1018.8mb 75f 74f
2:12 22 25 mph 1018.9mb 75f 74f
2:06 22 24 mph 1018.9mb 75f 74f
2:00 22 24 mph 1019mb 75f 74f
1:54 18 22 mph 1019.1mb 75f 74f
1:48 21 23 mph 1019mb 75f 74f
1:42 23 24 mph 1019mb 75f 74f
1:36 22 24 mph 1018.9mb 75f 74f
1:30 23 24 mph 1019mb 75f 73f
1:24 22 24 mph 1019mb 75f 73f
1:18 22 24 mph 1019mb 75f 73f
1:12 22 25 mph 1019mb 75f 73f
1:06 24 25 mph 1019mb 75f 73f
1:00 23 25 mph 1019mb 75f 74f
12:54 23 24 mph 1019.1mb 75f 73f
12:48 22 24 mph 1019mb 75f 74f
12:42 20 22 mph 1019.1mb 75f 74f
12:36 21 23 mph 1019.1mb 75f 74f
12:30 21 22 mph 1019.1mb 75f 74f
12:24 20 22 mph 1019.1mb 75f 74f
12:18 21 22 mph 1019.1mb 75f 74f
12:12 18 21 mph 1019.2mb 75f 73f
12:06 17 20 mph 1019.2mb 75f 74f
12:00 16 20 mph 1019.3mb 75f 73f
11:54 17 18 mph 1019.3mb 75f 73f
11:48 18 20 mph 1019.2mb 75f 73f
11:42 17 18 mph 1019.3mb 74f 73f
11:36 15 18 mph 1019.4mb 74f 73f
11:30 17 18 mph 1019.3mb 74f 73f
11:24 16 17 mph 1019.3mb 74f 73f
11:18 15 17 mph 1019.4mb 74f 73f
11:12 15 17 mph 1019.3mb 74f 73f
11:06 16 17 mph 1019.2mb 74f 72f
11:00 16 17 mph 1019.2mb 74f 73f
10:54 15 17 mph 1019.2mb 74f 72f
10:48 16 17 mph 1019.2mb 74f 72f
10:42 15 16 mph 1019.3mb 74f 72f
10:36 15
mph
1019.3mb 74f 72f
10:30 14 15 mph 1019.3mb 74f 72f
10:24 13 15 mph 1019.3mb 74f 72f
10:18 11 14 mph 1019.3mb 74f 72f
10:12 13 15 mph 1019.2mb 74f 72f
10:06 10 11 mph 1019.3mb 74f 72f
10:00 10 11 mph 1019.2mb 74f 71f
9:54 10 11 mph 1019.2mb 73f 71f
9:48 10 11 mph 1019.2mb 73f 71f
9:42 9 11 mph 1019.2mb 73f 71f
9:36 8 9 mph 1019.2mb 73f 71f
9:30 8 10 mph 1019.2mb 73f 71f
9:24 8 9 mph 1019.2mb 74f 70f
9:18 8 9 mph 1019.2mb 74f 70f
9:12 8 9 mph 1019.2mb 74f 70f
9:06 7 10 mph 1019.3mb 74f 70f
9:00 9 10 mph 1019.3mb 74f 70f
8:54 9 10 mph 1019.2mb 74f 69f
8:48 9 10 mph 1019.3mb 74f 69f
8:42 8 9 mph 1019.3mb 74f 69f
8:36 7 8 mph 1019.3mb 74f 69f
8:30 7 8 mph 1019.3mb 74f 69f
8:24 7 9 mph 1019.4mb 74f 69f
8:18 8 9 mph 1019.5mb 74f 69f
8:12 8 9 mph 1019.5mb 74f 68f
8:06 8 9 mph 1019.6mb 74f 68f
8:00 8
mph
1019.6mb 74f 68f
7:54 6 7 mph 1019.5mb 74f 67f
7:48 6 7 mph 1019.5mb 74f 67f
7:42 6 7 mph 1019.4mb 74f 67f
7:36 6 8 mph 1019.4mb 74f 67f
7:30 6 7 mph 1019.4mb 74f 67f
7:24 6 8 mph 1019.4mb 74f 66f
7:18 7
mph
1019.3mb 74f 66f
7:12 6 7 mph 1019.2mb 74f 66f
7:06 7 9 mph 1019.2mb 74f 66f
7:00 7 8 mph 1019.2mb 74f 66f
6:54 7 8 mph 1019.1mb 74f 66f
6:48 8
mph
1019.1mb 74f 66f
6:42 8 10 mph 1018.9mb 74f 66f
6:36 9 11 mph 1018.9mb 74f 66f
6:30 8 9 mph 1018.9mb 74f 66f
6:24 8 9 mph 1018.8mb 74f 66f
6:18 8 9 mph 1018.8mb 74f 67f
6:12 8 9 mph 1018.7mb 74f 67f
6:06 8 9 mph 1018.7mb 74f 67f
6:00 7 8 mph 1018.5mb 74f 67f
5:54 7 9 mph 1018.5mb 74f 67f
5:48 8 9 mph 1018.6mb 74f 67f
5:42 8 10 mph 1018.6mb 74f 67f
5:36 8
mph
1018.5mb 74f 67f
5:30 7 8 mph 1018.5mb 74f 67f
5:24 7 8 mph 1018.4mb 74f 67f
5:18 6 7 mph 1018.4mb 74f 67f
5:12 6 7 mph 1018.4mb 74f 66f
5:06 6 7 mph 1018.3mb 74f 66f
5:00 6 7 mph 1018.2mb 74f 67f
4:54 6
mph
1018.1mb 74f 67f
4:48 5 7 mph 1018.2mb 74f 67f
4:42 7 8 mph 1018.1mb 74f 67f
4:36 7 8 mph 1018.2mb 74f 67f
4:30 8 9 mph 1018.1mb 74f 67f
4:24 7 9 mph 1018.1mb 74f 67f
4:18 7 9 mph 1018mb 74f 67f
4:12 8 9 mph 1018mb 74f 67f
4:06 8 9 mph 1018mb 74f 67f
4:00 6 8 mph 1018mb 74f 67f
3:54 7 8 mph 1017.9mb 74f 67f
3:48 1 2 mph 1018mb 74f 66f
3:42  -  1 mph 1017.9mb 74f 65f
3:36  -  1 mph 1018mb 74f 66f
3:30  -  2 mph 1018mb 74f 66f
3:24 2 3 mph 1017.9mb 74f 65f
3:18 2 3 mph 1017.9mb 75f 65f
3:12 3 5 mph 1017.8mb 75f 65f
3:06 2 3 mph 1017.8mb 75f 65f
3:00 3 7 mph 1017.8mb 75f 65f
2:54 6 7 mph 1017.8mb 75f 65f
2:48 3 6 mph 1017.8mb 75f 65f
2:42 5 7 mph 1017.8mb 75f 65f
2:36 5 7 mph 1017.8mb 75f 65f
2:30 6 8 mph 1017.8mb 75f 65f
2:24 6 9 mph 1017.9mb 75f 66f
2:18 8 9 mph 1017.9mb 75f 66f
2:12 6 8 mph 1017.8mb 75f 66f
2:06 5 6 mph 1017.7mb 75f 65f
2:00 5 6 mph 1017.7mb 75f 65f
1:54 3 5 mph 1017.7mb 75f 65f
1:48 2 5 mph 1017.7mb 75f 66f
1:42 3 5 mph 1017.7mb 75f 67f
1:36 2 3 mph 1017.6mb 75f 67f
1:30 1 2 mph 1017.6mb 75f 68f
1:24  -  2 mph 1017.7mb 75f 68f
1:18  -  2 mph 1017.7mb 75f 67f
1:12  -  1 mph 1017.6mb 75f 67f
1:06  -  2 mph 1017.5mb 75f 67f
1:00 1 2 mph 1017.6mb 75f 67f
12:54  -  1 mph 1017.6mb 75f 67f
12:48  -  3 mph 1017.6mb 75f 68f
12:42 3 6 mph 1017.6mb 75f 68f
12:36 2 5 mph 1017.5mb 75f 68f
12:30  -  1 mph 1017.5mb 75f 68f
12:24 2 3 mph 1017.5mb 75f 68f
12:18  -  3 mph 1017.6mb 75f 68f
12:12 3 5 mph 1017.6mb 75f 68f
12:06  -  3 mph 1017.6mb 75f 68f
12:00 1 3 mph 1017.6mb 75f 68f
Qua 07/30 11:54 2 6 mph 1017.6mb 75f 68f
11:48 6 7 mph 1017.6mb 75f 68f
11:42 6 7 mph 1017.6mb 75f 68f
11:36 3 6 mph 1017.6mb 75f 68f
11:30 1 3 mph 1017.6mb 75f 68f
11:24 2 5 mph 1017.6mb 75f 68f
11:18 3
mph
1017.6mb 75f 69f
11:12 3 8 mph 1017.6mb 75f 68f
11:06 5 7 mph 1017.6mb 75f 68f
11:00 6 9 mph 1017.5mb 75f 68f
10:54 8 9 mph 1017.5mb 75f 68f
10:48 9 10 mph 1017.5mb 75f 68f
10:42 8 11 mph 1017.4mb 75f 69f
10:36 9 11 mph 1017.5mb 75f 69f
10:30 9 13 mph 1017.4mb 75f 69f
10:24 10 13 mph 1017.4mb 75f 69f
10:18 10 13 mph 1017.4mb 75f 69f
10:12 11 13 mph 1017.4mb 75f 69f
10:06 11 14 mph 1017.4mb 75f 69f
10:00 11 14 mph 1017.4mb 75f 69f
9:54 13 14 mph 1017.3mb 75f 69f
9:48 11 14 mph 1017.3mb 75f 70f
9:42 11 14 mph 1017.3mb 75f 70f
9:36 13 14 mph 1017.3mb 75f 70f
9:30 13 14 mph 1017.2mb 75f 70f
9:24 11 14 mph 1017.2mb 75f 70f
9:18 13 14 mph 1017.1mb 75f 70f
9:12 11 14 mph 1017.1mb 75f 70f
9:06 13 14 mph 1017mb 75f 70f
9:00 15 17 mph 1016.9mb 75f 70f
8:54 14 16 mph 1016.9mb 75f 71f
8:48 13 14 mph 1016.8mb 76f 71f
8:42 13 14 mph 1016.8mb 76f 71f
8:36 14 16 mph 1016.7mb 76f 71f
8:30 13 16 mph 1016.7mb 76f 71f
8:24 14 16 mph 1016.6mb 76f 71f
8:18 14 15 mph 1016.6mb 76f 71f
8:12 14 15 mph 1016.6mb 76f 71f
8:06 14 16 mph 1016.6mb 76f 71f
8:00 14 15 mph 1016.5mb 76f 72f
7:54 14 16 mph 1016.4mb 76f 72f
7:48 14 16 mph 1016.3mb 76f 72f
7:42 14 16 mph 1016.3mb 76f 72f
7:36 14 16 mph 1016.2mb 76f 73f
7:30 14 15 mph 1016.2mb 76f 73f
7:24 13 16 mph 1016.2mb 76f 73f
7:18 15 17 mph 1016.1mb 76f 73f
7:12 15 16 mph 1016.1mb 76f 73f
7:06 15 16 mph 1016mb 76f 74f
7:00 15 16 mph 1016mb 76f 74f
6:54 15 17 mph 1015.9mb 76f 74f
6:48 14 16 mph 1015.9mb 76f 74f
6:42 15 18 mph 1015.9mb 76f 74f
6:36 16 18 mph 1015.8mb 75f 74f
6:30 16 18 mph 1015.8mb 75f 74f
6:24 15 18 mph 1015.8mb 75f 74f
6:18 16 20 mph 1015.7mb 75f 74f
6:12 18 21 mph 1015.6mb 74f 74f
6:06 15 18 mph 1015.6mb 74f 74f
6:00 17 20 mph 1015.5mb 74f 75f
5:54 17 20 mph 1015.5mb 74f 74f
5:48 17 21 mph 1015.6mb 74f 75f
5:42 17 22 mph 1015.5mb 75f 75f
5:36 16 21 mph 1015.5mb 75f 75f
5:30 18 21 mph 1015.4mb 75f 74f
5:24 20 21 mph 1015.3mb 75f 74f
5:18 21 23 mph 1015.3mb 75f 74f
5:12 21 23 mph 1015.2mb 75f 74f
5:06 22 23 mph 1015.1mb 76f 74f
5:00 22 23 mph 1015.1mb 76f 74f
4:54 21 22 mph 1015.1mb 76f 74f
4:48 21 22 mph 1015.1mb 76f 74f
4:42 21 23 mph 1015.2mb 76f 74f
4:36 21 23 mph 1015.1mb 76f 74f
4:30 20 22 mph 1015mb 76f 74f
4:24 20 21 mph 1015mb 76f 74f
4:18 18 20 mph 1014.9mb 76f 74f
4:12 18 21 mph 1015mb 76f 74f
4:06 20 22 mph 1015mb 76f 74f
4:00 17 20 mph 1015.1mb 76f 74f
3:54 16 21 mph 1015.1mb 76f 74f
3:48 17 20 mph 1015mb 76f 74f
3:42 14 17 mph 1015.1mb 76f 74f
3:36 16 20 mph 1015.1mb 76f 73f
3:30 18 21 mph 1015mb 76f 73f
3:24 17 18 mph 1015mb 76f 73f
3:18 15 16 mph 1015.1mb 76f 73f
3:12 16 17 mph 1015.2mb 76f 73f
3:06 14 16 mph 1015.2mb 76f 73f
3:00 16 17 mph 1015.2mb 76f 73f
2:54 16 17 mph 1015.2mb 76f 73f
2:48 16 17 mph 1015.2mb 76f 73f
2:42 15 17 mph 1015.2mb 76f 73f
2:36 16 17 mph 1015.3mb 76f 73f
2:30 15 16 mph 1015.3mb 76f 73f
2:24 15 17 mph 1015.3mb 76f 73f
2:18 15 16 mph 1015.3mb 76f 73f
2:12 16 17 mph 1015.2mb 76f 73f
2:06 15 16 mph 1015.2mb 76f 73f
2:00 15 17 mph 1015.3mb 76f 73f
1:54 14 15 mph 1015.3mb 76f 73f
1:48 14 16 mph 1015.3mb 76f 73f
1:42 15 16 mph 1015.2mb 76f 73f
1:36 14 16 mph 1015.2mb 76f 73f
1:30 14 15 mph 1015.2mb 76f 73f
1:24 15 16 mph 1015.2mb 76f 73f
1:18 11 14 mph 1015.3mb 76f 74f
1:12 11 16 mph 1015.3mb 76f 74f
1:06 13 15 mph 1015.4mb 76f 73f
1:00 11 16 mph 1015.5mb 76f 74f
12:54 15 16 mph 1015.4mb 76f 73f
12:48 13 14 mph 1015.5mb 76f 73f
12:42 10 13 mph 1015.5mb 76f 73f
12:36 9 13 mph 1015.5mb 76f 74f
12:30 9 11 mph 1015.6mb 76f 74f
12:24 6 8 mph 1015.6mb 76f 74f
12:18 8 11 mph 1015.7mb 76f 74f
12:12 6 8 mph 1015.7mb 76f 74f
12:06 7 9 mph 1015.7mb 76f 74f
12:00 3 5 mph 1015.8mb 75f 74f
11:54  -  2 mph 1015.8mb 75f 74f
11:48 3 6 mph 1015.9mb 75f 73f
11:42 6 9 mph 1015.8mb 75f 73f
11:36 6 9 mph 1015.9mb 75f 73f
11:30 8 10 mph 1015.9mb 75f 73f
11:24 7 8 mph 1015.9mb 75f 73f
11:18 7 9 mph 1015.9mb 75f 72f
11:12 6 8 mph 1015.9mb 75f 71f
11:06 7 8 mph 1015.9mb 75f 71f
11:00 7 8 mph 1015.9mb 75f 71f
10:54 8 9 mph 1015.8mb 75f 71f
10:48 8 9 mph 1015.9mb 75f 71f
10:42 8
mph
1015.9mb 75f 71f
10:36 8 10 mph 1015.8mb 74f 71f
10:30 8 9 mph 1015.9mb 74f 71f
10:24 8
mph
1015.9mb 74f 70f
10:18 7 9 mph 1015.9mb 74f 70f
10:12 7 8 mph 1015.9mb 74f 70f
10:06 6 7 mph 1016mb 74f 69f
10:00 6
mph
1015.9mb 74f 69f
9:54 5 6 mph 1015.9mb 74f 69f
9:48 3 5 mph 1015.9mb 74f 69f
9:42 3
mph
1015.8mb 74f 69f
9:36 2 3 mph 1015.8mb 74f 69f
9:30 2 3 mph 1015.8mb 74f 69f
9:24  -  1 mph 1015.9mb 74f 69f
9:18  -  1 mph 1015.9mb 74f 69f
9:12  -  1 mph 1015.9mb 74f 69f
9:06  -  1 mph 1015.9mb 74f 68f
9:00 1 2 mph 1015.8mb 74f 68f
8:54 1 2 mph 1015.8mb 74f 68f
8:48 2 3 mph 1015.9mb 74f 67f
8:42 2 5 mph 1015.9mb 74f 68f
8:36 3 5 mph 1016mb 75f 68f
8:30 3
mph
1015.9mb 75f 68f
8:24 2 5 mph 1015.9mb 75f 68f
8:18 2 3 mph 1015.9mb 75f 69f
8:12 3 5 mph 1015.9mb 75f 68f
8:06 5 6 mph 1015.9mb 75f 67f
8:00 5 7 mph 1015.8mb 75f 67f
7:54 6 7 mph 1015.8mb 75f 66f
7:48 6 7 mph 1015.8mb 75f 66f
7:42 6 7 mph 1015.8mb 75f 65f
7:36 6
mph
1015.8mb 75f 65f
7:30 5 6 mph 1015.7mb 75f 65f
7:24 5 6 mph 1015.7mb 75f 65f
7:18 2 3 mph 1015.7mb 75f 65f
7:12 2 3 mph 1015.7mb 75f 65f
7:06 2 3 mph 1015.7mb 75f 65f
7:00 3
mph
1015.6mb 75f 65f
6:54 3 5 mph 1015.5mb 75f 65f
6:48 3 5 mph 1015.6mb 75f 65f
6:42 3 5 mph 1015.6mb 75f 65f
6:36 2 3 mph 1015.5mb 75f 65f
6:30 3 5 mph 1015.5mb 75f 65f
6:24 3 5 mph 1015.5mb 75f 64f
6:18 3 5 mph 1015.5mb 74f 64f
6:12 3 5 mph 1015.4mb 74f 64f
6:06 6
mph
1015.2mb 74f 64f
6:00 5 6 mph 1015.1mb 74f 64f
5:54 3 5 mph 1015.1mb 74f 64f
5:48 2 5 mph 1015mb 74f 65f
5:42 3 5 mph 1014.9mb 74f 65f
5:36 3 5 mph 1014.9mb 74f 65f
5:30 3 5 mph 1014.8mb 74f 65f
5:24 3 5 mph 1014.7mb 74f 65f
5:18 2 5 mph 1014.7mb 74f 66f
5:12 3 5 mph 1014.6mb 75f 66f
5:06 3
mph
1014.6mb 75f 66f
5:00 2
mph
1014.5mb 75f 66f
4:54 2 3 mph 1014.5mb 75f 65f
4:48 1 2 mph 1014.4mb 75f 65f
4:42 2 3 mph 1014.3mb 75f 66f
4:36 3 6 mph 1014.3mb 75f 65f
4:30 5 6 mph 1014.2mb 75f 65f
4:24 3 5 mph 1014.2mb 75f 65f
4:18 1 3 mph 1014.2mb 75f 65f
4:12 2 3 mph 1014.3mb 75f 65f
4:06 1 3 mph 1014.3mb 75f 65f
4:00  -  2 mph 1014.2mb 75f 65f
3:54 2 3 mph 1014.1mb 75f 65f
3:48 3
mph
1014.2mb 75f 65f
3:42 2 6 mph 1014.2mb 75f 64f
3:36 6 7 mph 1014.2mb 75f 64f
3:30 6 8 mph 1014.1mb 75f 64f
3:24 9 10 mph 1014.1mb 75f 64f
3:18 6
mph
1014mb 75f 65f
3:12 1 3 mph 1013.8mb 75f 65f
3:06 3 5 mph 1013.8mb 75f 65f
3:00 3 5 mph 1013.9mb 75f 65f
2:54 5 6 mph 1013.9mb 75f 65f
2:48 5 6 mph 1013.9mb 75f 66f
2:42 5 6 mph 1013.9mb 75f 66f
2:36 6
mph
1014mb 75f 66f
2:30 6
mph
1014.1mb 75f 66f
2:24 5 6 mph 1014.2mb 75f 67f
2:18 5 6 mph 1014.2mb 75f 67f
2:12 2 3 mph 1014.3mb 75f 67f
2:06 3 6 mph 1014.2mb 76f 67f
2:00 5
mph
1014.2mb 76f 66f
1:54 2 6 mph 1014.4mb 76f 66f
1:48 3
mph
1014.4mb 76f 66f
1:42 3 5 mph 1014.5mb 76f 66f
1:36 6 8 mph 1014.5mb 76f 66f
1:30 7 8 mph 1014.5mb 76f 66f
1:24 6 7 mph 1014.4mb 76f 66f
1:18 5 6 mph 1014.5mb 76f 66f
1:12 5 7 mph 1014.5mb 76f 66f
1:06 6 8 mph 1014.5mb 76f 66f
1:00 7 8 mph 1014.4mb 76f 66f
12:54 7 9 mph 1014.4mb 76f 67f
12:48 8 9 mph 1014.4mb 76f 67f
12:42 8 9 mph 1014.4mb 76f 67f
12:36 8 9 mph 1014.4mb 76f 67f
12:30 6 7 mph 1014.4mb 76f 67f
12:24 6
mph
1014.5mb 76f 67f
12:18 5 7 mph 1014.5mb 76f 67f
12:12 6 7 mph 1014.4mb 76f 67f
12:06 5 8 mph 1014.3mb 76f 67f
12:00 8 9 mph 1014.2mb 76f 67f
Ter 07/29 11:54 7 9 mph 1014.1mb 76f 67f
11:48 6 8 mph 1014.1mb 76f 66f
11:42 6 7 mph 1014.1mb 76f 66f
11:36 6 9 mph 1014mb 76f 66f
11:30 7 10 mph 1014mb 76f 66f
11:24 8 9 mph 1013.9mb 76f 67f
11:18 8 9 mph 1013.9mb 76f 67f
11:12 8 9 mph 1013.8mb 76f 67f
11:06 8 9 mph 1013.8mb 76f 67f
11:00 8 10 mph 1013.7mb 76f 67f
10:54 8 10 mph 1013.6mb 76f 67f
10:48 8 9 mph 1013.6mb 76f 67f
10:42 8 9 mph 1013.6mb 76f 67f
10:36 7 9 mph 1013.5mb 76f 68f
10:30 8 9 mph 1013.5mb 76f 68f
10:24 7 8 mph 1013.5mb 76f 68f
10:18 7 9 mph 1013.5mb 76f 68f
10:12 7 8 mph 1013.5mb 76f 69f
10:06 7 8 mph 1013.5mb 76f 69f
10:00 7 8 mph 1013.5mb 76f 69f
9:54 7 8 mph 1013.5mb 76f 69f
9:48 6 7 mph 1013.4mb 76f 70f
9:42 6 7 mph 1013.4mb 76f 70f
9:36 6 7 mph 1013.4mb 76f 70f
9:30 6 7 mph 1013.3mb 76f 70f
9:24 6
mph
1013.3mb 76f 70f
9:18 6
mph
1013.2mb 75f 71f
9:12 6 8 mph 1013.1mb 75f 71f
9:06 7 9 mph 1013.1mb 75f 71f
9:00 7 8 mph 1013mb 75f 71f
8:54 8 9 mph 1013mb 75f 71f
8:48 7 8 mph 1013mb 75f 71f
8:42 6 8 mph 1012.9mb 75f 72f
8:36 6 7 mph 1012.8mb 75f 72f
8:30 6 8 mph 1012.8mb 75f 72f
8:24 7 8 mph 1012.8mb 75f 72f
8:18 7 8 mph 1012.8mb 75f 72f
8:12 7
mph
1012.8mb 76f 72f
8:06 7
mph
1012.8mb 76f 72f
8:00 6 7 mph 1012.7mb 76f 72f
7:54 6 7 mph 1012.7mb 76f 72f
7:48 6 8 mph 1012.7mb 76f 72f
7:42 8 9 mph 1012.7mb 76f 72f
7:36 9 10 mph 1012.7mb 76f 72f
7:30 9 11 mph 1012.7mb 76f 73f
7:24 8 11 mph 1012.6mb 76f 73f
7:18 13 14 mph 1012.6mb 75f 74f
7:12 11 14 mph 1012.5mb 75f 73f
7:06 10 13 mph 1012.5mb 75f 73f
7:00 9 11 mph 1012.4mb 75f 73f
6:54 10 13 mph 1012.3mb 74f 73f
6:48 10 13 mph 1012.2mb 74f 74f
6:42 7 11 mph 1012.1mb 74f 74f
6:36 10 13 mph 1012mb 74f 74f
6:30 9 13 mph 1011.9mb 74f 74f
6:24 13 15 mph 1011.9mb 74f 75f
6:18 13 15 mph 1011.7mb 74f 75f
6:12 13 15 mph 1011.6mb 74f 75f
6:06 11 13 mph 1011.6mb 74f 75f
6:00 10 11 mph 1011.4mb 74f 75f
5:54 8 10 mph 1011.4mb 75f 75f
5:48 8 11 mph 1011.3mb 75f 75f
5:42 9 14 mph 1011.3mb 75f 75f
5:36 11 15 mph 1011.2mb 75f 75f
5:30 13 15 mph 1011.2mb 75f 75f
5:24 11 14 mph 1011.2mb 75f 75f
5:18 10 14 mph 1011.1mb 75f 75f
5:12 15 16 mph 1011.1mb 76f 75f
5:06 11 15 mph 1011.1mb 76f 75f
5:00 9 11 mph 1011mb 76f 75f
4:54 10 14 mph 1011mb 76f 75f
4:48 11 15 mph 1011mb 76f 75f
4:42 15 17 mph 1010.9mb 76f 76f
4:36 11 15 mph 1010.8mb 76f 76f
4:30 11 15 mph 1010.7mb 76f 76f
4:24 10 13 mph 1010.6mb 76f 76f
4:18 9 13 mph 1010.5mb 77f 76f
4:12 9 13 mph 1010.5mb 77f 76f
4:06 8 11 mph 1010.4mb 77f 76f
4:00 8 14 mph 1010.3mb 77f 76f
3:54 9 11 mph 1010.2mb 77f 76f
3:48 8 10 mph 1010.2mb 77f 75f
3:42 10 13 mph 1010.2mb 77f 74f
3:36 10 15 mph 1010.1mb 77f 74f
3:30 10 13 mph 1010mb 77f 74f
3:24 9 13 mph 1010mb 77f 74f
3:18 10 13 mph 1010.1mb 77f 74f
3:12 9 14 mph 1010mb 77f 74f
3:06 11 15 mph 1009.9mb 77f 74f
3:00 13 15 mph 1009.9mb 77f 74f
2:54 11 14 mph 1009.8mb 77f 74f
2:48 14
mph
1009.7mb 77f 74f
2:42 14 15 mph 1009.7mb 77f 74f
2:36 13 14 mph 1009.6mb 77f 74f
2:30 11 14 mph 1009.6mb 77f 74f
2:24 11 13 mph 1009.6mb 77f 73f
2:18 13 14 mph 1009.5mb 77f 73f
2:12 13 15 mph 1009.4mb 77f 73f
2:06 11 14 mph 1009.4mb 77f 73f
2:00 9 14 mph 1009.4mb 76f 73f
1:54 11 13 mph 1009.4mb 76f 73f
1:48 10 11 mph 1009.4mb 76f 73f
1:42 10 13 mph 1009.4mb 76f 73f
1:36 11 13 mph 1009.4mb 76f 72f
1:30 13 14 mph 1009.4mb 76f 72f
1:24 10 13 mph 1009.3mb 76f 72f
1:18 9 10 mph 1009.3mb 75f 72f
1:12 6 8 mph 1009.3mb 75f 73f
1:06 6 8 mph 1009.3mb 75f 72f
1:00 8 9 mph 1009.3mb 75f 72f
12:54 6 7 mph 1009.3mb 75f 72f
12:48 7
mph
1009.2mb 75f 72f
12:42 7 9 mph 1009.2mb 75f 72f
12:36 8 9 mph 1009.1mb 75f 72f
12:30 8 9 mph 1009.1mb 75f 71f
12:24 8
mph
1009.1mb 75f 71f
12:18 7 8 mph 1009.1mb 75f 71f
12:12 6 7 mph 1009mb 75f 71f
12:06 6 7 mph 1009mb 75f 71f
12:00 6 8 mph 1008.9mb 75f 71f
11:54 6 7 mph 1009mb 75f 71f
11:48 3 5 mph 1008.9mb 75f 71f
11:42 5
mph
1008.9mb 75f 71f
11:36 3 5 mph 1008.9mb 75f 71f
11:30 5 6 mph 1009mb 75f 71f
11:24 6
mph
1009mb 75f 70f
11:18 6 8 mph 1009.1mb 75f 70f
11:12 7 8 mph 1009.1mb 75f 70f
11:06 7 8 mph 1009.1mb 75f 69f
11:00 6 9 mph 1009.2mb 75f 70f
10:54 7 9 mph 1009.1mb 75f 70f
10:48 1 5 mph 1009mb 75f 72f
10:42 5 6 mph 1009mb 75f 71f
10:36 3 6 mph 1008.9mb 75f 71f
10:30 6
mph
1008.8mb 75f 71f
10:24 6 7 mph 1008.8mb 75f 71f
10:18 2 6 mph 1008.8mb 75f 71f
10:12 6
mph
1008.8mb 75f 70f
10:06 5 8 mph 1008.7mb 75f 70f
10:00 7 8 mph 1008.7mb 74f 69f
9:54 6 7 mph 1008.7mb 74f 69f
9:48 5 9 mph 1008.7mb 74f 69f
9:42 8 13 mph 1008.6mb 74f 69f
9:36 8 10 mph 1008.6mb 74f 68f
9:30 8 11 mph 1008.5mb 74f 69f
9:24 9 10 mph 1008.5mb 74f 69f
9:18 8 10 mph 1008.5mb 74f 68f
9:12 8 10 mph 1008.4mb 74f 67f
9:06 8 14 mph 1008.4mb 74f 67f
9:00 9 11 mph 1008.3mb 74f 68f
8:54 8 10 mph 1008.4mb 74f 67f
8:48 7 10 mph 1008.3mb 74f 67f
8:42 7 8 mph 1008.4mb 74f 67f
8:36 9 10 mph 1008.4mb 74f 66f
8:30 10 13 mph 1008.3mb 74f 66f
8:24 10 13 mph 1008.2mb 74f 66f
8:18 11 13 mph 1008.2mb 74f 67f
8:12 10 13 mph 1008.1mb 74f 66f
8:06 9 10 mph 1008mb 74f 66f
8:00 9 11 mph 1008mb 74f 66f
7:54 7 10 mph 1007.9mb 74f 66f
7:48 7 11 mph 1007.9mb 74f 66f
7:42 10 13 mph 1007.9mb 74f 66f
7:36 10 13 mph 1007.8mb 74f 66f
7:30 9 13 mph 1007.8mb 74f 66f
7:24 11 13 mph 1007.8mb 75f 66f
7:18 9 11 mph 1007.7mb 75f 66f
7:12 8 11 mph 1007.6mb 75f 65f
7:06 8 10 mph 1007.4mb 75f 65f
7:00 9 14 mph 1007.2mb 75f 65f
6:54 8 13 mph 1007mb 75f 65f
6:48 10 13 mph 1006.9mb 75f 65f
6:42 10 14 mph 1006.7mb 75f 64f
6:36 10 15 mph 1006.5mb 75f 64f
6:30 10 11 mph 1006.4mb 75f 64f
6:24 10 13 mph 1006.5mb 75f 64f
6:18 10 11 mph 1006.5mb 75f 64f
6:12 10 11 mph 1006.5mb 75f 64f
6:06 9 10 mph 1006.5mb 75f 64f
6:00 9 10 mph 1006.5mb 75f 64f
5:54 8 9 mph 1006.5mb 75f 64f
5:48 8 10 mph 1006.4mb 75f 64f
5:42 8 10 mph 1006.4mb 75f 64f
5:36 8 10 mph 1006.3mb 75f 64f
5:30 7 10 mph 1006.4mb 75f 64f
5:24 7 9 mph 1006.3mb 75f 64f
5:18 8 9 mph 1006.2mb 75f 64f
5:12 8 10 mph 1006.1mb 75f 64f
5:06 10 13 mph 1005.9mb 75f 64f
5:00 9 13 mph 1005.8mb 75f 65f
4:54 9 11 mph 1005.6mb 75f 65f
4:48 10 11 mph 1005.5mb 75f 65f
4:42 11 14 mph 1005.4mb 75f 65f
4:36 11 14 mph 1005.3mb 75f 65f
4:30 11 14 mph 1005.1mb 75f 65f
4:24 13 15 mph 1005.1mb 75f 65f
4:18 11 14 mph 1004.9mb 75f 65f
4:12 9 11 mph 1004.9mb 75f 65f
4:06 10 11 mph 1005mb 75f 66f
4:00 9 13 mph 1004.9mb 75f 66f
3:54 11 13 mph 1004.8mb 75f 66f
3:48 10 13 mph 1004.7mb 75f 66f
3:42 11 13 mph 1004.5mb 75f 66f
3:36 10 13 mph 1004.5mb 75f 66f
3:30 11 14 mph 1004.4mb 75f 66f
3:24 10 13 mph 1004.3mb 75f 66f
3:18 11 15 mph 1004.2mb 75f 67f
3:12 11 15 mph 1004.1mb 75f 67f
3:06 11 13 mph 1004mb 75f 67f
3:00 9 13 mph 1004mb 75f 67f
2:54 10 13 mph 1003.9mb 75f 67f
2:48 11 14 mph 1003.7mb 75f 67f
2:42 13 15 mph 1003.6mb 75f 68f
2:36 14 15 mph 1003.5mb 75f 68f
2:30 11 16 mph 1003.5mb 75f 68f
2:24 11 15 mph 1003.5mb 75f 68f
2:18 11 16 mph 1003.4mb 75f 69f
2:12 13 16 mph 1003.3mb 75f 69f
2:06 13 16 mph 1003.2mb 75f 69f
2:00 14 17 mph 1003.2mb 75f 69f
1:54 13 15 mph 1003.2mb 75f 69f
1:48 13 20 mph 1003.1mb 75f 69f
1:42 13 18 mph 1003mb 75f 69f
1:36 17 21 mph 1002.8mb 75f 69f
1:30 17 23 mph 1002.6mb 76f 69f
1:24 18 22 mph 1002.6mb 76f 69f
1:18 17 24 mph 1002.4mb 76f 69f
1:12 18 26 mph 1002.4mb 76f 69f
1:06 18 22 mph 1002.3mb 76f 69f
1:00 16 21 mph 1002mb 75f 70f
12:54 17 20 mph 1001.9mb 75f 70f
12:48 16 22 mph 1001.7mb 75f 70f
12:42 16 18 mph 1001.6mb 75f 70f
12:36 15 18 mph 1001.6mb 75f 70f
12:30 16 20 mph 1001.5mb 75f 71f
12:24 15 21 mph 1001.4mb 75f 71f
12:18 14 16 mph 1001.4mb 75f 71f
12:12 13 17 mph 1001.4mb 75f 71f
12:06 13 18 mph 1001.5mb 75f 71f
12:00 13 18 mph 1001.4mb 76f 71f
Seg 07/28 11:54 14 16 mph 1001.4mb 76f 71f
11:48 14 17 mph 1001.5mb 76f 72f
11:42 9 13 mph 1001.5mb 76f 72f
11:36 10 13 mph 1001.4mb 76f 72f
11:30 9 11 mph 1001.3mb 76f 72f
11:24 10 13 mph 1001.4mb 76f 72f
11:18 10 13 mph 1001.3mb 76f 72f
11:12 10 14 mph 1001.3mb 76f 72f
11:06 10 14 mph 1001.3mb 76f 72f
11:00 13 15 mph 1001.3mb 76f 73f